Time;durP1;ratioP1;P1;durP2;ratioP2;P2;SDS_P1;SDS_P2;PMS_P1;PMS_P2;Temp;Humidity;BMP_temperature;BMP_pressure;BME280_temperature;BME280_humidity;BME280_pressure;Samples;Min_cycle;Max_cycle;Signal;HPM_P1;HPM_P2
2023/05/02 00:29:24;;;;;;;99.72;27.88;;;12.20;99.90;;;;;;4938309;29;20533;-85
2023/05/02 00:32:52;;;;;;;103.28;28.35;;;12.20;99.90;;;;;;4918091;29;20196;-84
2023/05/02 00:39:04;;;;;;;103.03;29.80;;;12.00;99.90;;;;;;4892045;29;20184;-84
2023/05/02 00:55:48;;;;;;;100.88;27.77;;;11.80;99.90;;;;;;4957029;28;20627;-84
2023/05/02 01:13:22;;;;;;;;;;;;;;;;;;;;;
2023/05/02 01:16:27;;;;;;;103.63;29.07;;;11.90;99.90;;;;;;4898335;29;20188;-84
2023/05/02 01:19:52;;;;;;;100.90;28.80;;;11.90;99.90;;;;;;4864049;29;20450;-84
2023/05/02 01:23:00;;;;;;;104.00;28.00;;;11.90;99.90;;;;;;4844155;29;20266;-84
2023/05/02 01:26:37;;;;;;;101.38;29.52;;;11.90;99.90;;;;;;4882421;29;20201;-84
2023/05/02 01:29:32;;;;;;;103.68;28.08;;;11.90;99.90;;;;;;4878675;29;20183;-84
2023/05/02 01:36:39;;;;;;;;;;;;;;;;;;;;;
2023/05/02 01:39:47;;;;;;;115.05;31.15;;;12.00;99.90;;;;;;4851254;29;20191;-83
2023/05/02 01:42:16;;;;;;;113.15;30.50;;;11.90;99.90;;;;;;4863644;29;20753;-84
2023/05/02 01:48:52;;;;;;;110.35;32.13;;;11.90;99.90;;;;;;4998108;28;20185;-84
2023/05/02 01:52:03;;;;;;;112.13;33.45;;;11.90;99.90;;;;;;4997394;28;20161;-84
2023/05/02 01:58:48;;;;;;;119.97;33.83;;;11.90;99.90;;;;;;5000199;28;20154;-84
2023/05/02 02:02:05;;;;;;;109.75;30.10;;;11.90;99.90;;;;;;4978122;28;20213;-83
2023/05/02 02:08:49;;;;;;;115.32;37.85;;;11.70;99.90;;;;;;4958154;28;20694;-84
2023/05/02 02:12:08;;;;;;;;;;;;;;;;;;;;;
2023/05/02 02:20:34;;;;;;;117.68;38.22;;;11.60;99.90;;;;;;4996006;28;20221;-81
2023/05/02 02:23:05;;;;;;;116.55;39.65;;;11.50;99.90;;;;;;4996696;28;20217;-82
2023/05/02 02:25:36;;;;;;;120.13;39.97;;;11.50;99.90;;;;;;4998173;28;20273;-82
2023/05/02 02:28:02;;;;;;;125.43;43.50;;;11.60;99.90;;;;;;4997930;28;20147;-81
2023/05/02 02:30:28;;;;;;;120.40;41.27;;;11.60;99.90;;;;;;4997866;28;20177;-81
2023/05/02 02:32:53;;;;;;;117.10;37.30;;;11.70;99.90;;;;;;4997879;28;20220;-81
2023/05/02 02:35:19;;;;;;;131.60;39.83;;;11.60;99.90;;;;;;4997888;28;20960;-82
2023/05/02 02:37:47;;;;;;;129.27;42.40;;;11.70;99.90;;;;;;5087301;22;20225;-82
2023/05/02 02:40:26;;;;;;;126.18;40.53;;;11.70;99.90;;;;;;5016616;28;20396;-81
2023/05/02 02:43:16;;;;;;;115.13;40.20;;;11.70;99.90;;;;;;5016986;28;20196;-82
2023/05/02 02:46:32;;;;;;;117.38;40.15;;;11.80;99.90;;;;;;5016774;28;20205;-81
2023/05/02 02:49:16;;;;;;;116.25;38.83;;;11.70;99.90;;;;;;4995194;28;20167;-82
2023/05/02 02:51:52;;;;;;;118.65;39.50;;;11.80;99.90;;;;;;5016963;28;20608;-81
2023/05/02 02:54:30;;;;;;;119.55;41.13;;;11.80;99.90;;;;;;5015589;28;20189;-81
2023/05/02 02:57:16;;;;;;;118.70;38.38;;;11.80;99.90;;;;;;5016673;28;20226;-82
2023/05/02 02:59:50;;;;;;;121.20;40.97;;;11.80;99.90;;;;;;5016592;28;20154;-82
2023/05/02 03:02:18;;;;;;;129.68;39.63;;;11.80;99.90;;;;;;5016666;28;20193;-81
2023/05/02 03:04:45;;;;;;;112.22;38.53;;;11.80;99.90;;;;;;5016512;28;20185;-82
2023/05/02 03:07:12;;;;;;;120.13;40.85;;;11.80;99.90;;;;;;5016576;28;20246;-82
2023/05/02 03:09:45;;;;;;;126.30;41.55;;;11.80;99.90;;;;;;5014980;28;20561;-82
2023/05/02 03:12:11;;;;;;;122.03;39.60;;;11.70;99.90;;;;;;5016342;28;20150;-82
2023/05/02 03:14:37;;;;;;;115.55;39.08;;;11.80;99.90;;;;;;5014912;28;20224;-81
2023/05/02 03:17:04;;;;;;;124.90;40.03;;;11.70;99.90;;;;;;5016550;28;20173;-82
2023/05/02 03:19:30;;;;;;;125.03;39.80;;;11.60;99.90;;;;;;5016442;28;20173;-82
2023/05/02 03:21:56;;;;;;;127.57;41.97;;;11.70;99.90;;;;;;5014956;28;20670;-82
2023/05/02 03:24:22;;;;;;;120.20;39.37;;;11.70;99.90;;;;;;5016261;28;20420;-82
2023/05/02 03:26:47;;;;;;;117.23;37.43;;;11.70;99.90;;;;;;5016272;28;20405;-82
2023/05/02 03:29:14;;;;;;;116.10;39.20;;;11.60;99.90;;;;;;5014646;28;20166;-82
2023/05/02 03:31:40;;;;;;;117.10;38.08;;;11.60;99.90;;;;;;5016767;28;20193;-82
2023/05/02 03:34:08;;;;;;;113.60;39.97;;;11.70;99.90;;;;;;5016060;28;20178;-82
2023/05/02 03:36:34;;;;;;;122.80;38.60;;;11.70;99.90;;;;;;5016258;28;20198;-82
2023/05/02 03:38:59;;;;;;;121.13;34.97;;;11.70;99.90;;;;;;5014416;28;20272;-82
2023/05/02 03:41:25;;;;;;;120.90;38.73;;;11.80;99.90;;;;;;5014758;28;20174;-82
2023/05/02 03:43:51;;;;;;;115.07;34.47;;;11.70;99.90;;;;;;5016101;28;20185;-82
2023/05/02 03:46:16;;;;;;;117.27;35.27;;;11.70;99.90;;;;;;5014824;28;20259;-82
2023/05/02 03:48:44;;;;;;;119.43;35.00;;;11.70;99.90;;;;;;5016169;28;20192;-82
2023/05/02 03:51:10;;;;;;;114.10;33.75;;;11.80;99.90;;;;;;5015901;28;20189;-82
2023/05/02 03:53:36;;;;;;;112.33;32.70;;;11.80;99.90;;;;;;5015606;28;20511;-82
2023/05/02 03:56:01;;;;;;;106.20;32.28;;;11.80;99.90;;;;;;5015895;28;20158;-82
2023/05/02 03:58:27;;;;;;;112.20;36.07;;;11.70;99.90;;;;;;5015837;28;20176;-82
2023/05/02 04:00:53;;;;;;;116.57;36.07;;;11.70;99.90;;;;;;5015972;28;20593;-82
2023/05/02 04:03:19;;;;;;;108.55;33.92;;;11.70;99.90;;;;;;5014336;28;20657;-82
2023/05/02 04:05:46;;;;;;;108.85;30.90;;;11.70;99.90;;;;;;5015666;28;20296;-82
2023/05/02 04:08:12;;;;;;;109.95;31.77;;;11.80;99.90;;;;;;5014193;28;20170;-82
2023/05/02 04:10:38;;;;;;;106.53;30.58;;;11.80;99.90;;;;;;5014351;28;20239;-82
2023/05/02 04:13:04;;;;;;;112.93;33.40;;;11.80;99.90;;;;;;5015584;28;20224;-82
2023/05/02 04:15:37;;;;;;;108.47;32.77;;;11.80;99.90;;;;;;5290589;22;20618;-82
2023/05/02 04:18:03;;;;;;;111.10;32.40;;;11.70;99.90;;;;;;5112844;23;20542;-82
2023/05/02 04:20:32;;;;;;;119.90;37.27;;;11.70;99.90;;;;;;5035261;28;20203;-82
2023/05/02 04:23:01;;;;;;;112.35;34.25;;;11.60;99.90;;;;;;5035414;28;20858;-82
2023/05/02 04:25:27;;;;;;;113.05;35.15;;;11.60;99.90;;;;;;5035253;28;20215;-82
2023/05/02 04:28:00;;;;;;;113.85;35.58;;;11.60;99.90;;;;;;5034930;28;20171;-82
2023/05/02 04:30:26;;;;;;;118.40;35.75;;;11.70;99.90;;;;;;5035200;28;20256;-82
2023/05/02 04:32:54;;;;;;;113.40;35.60;;;11.70;99.90;;;;;;5035304;28;20181;-82
2023/05/02 04:35:20;;;;;;;117.65;36.10;;;11.70;99.90;;;;;;5035280;28;20426;-82
2023/05/02 04:37:46;;;;;;;111.20;34.80;;;11.70;99.90;;;;;;5035536;28;20226;-82
2023/05/02 04:40:12;;;;;;;114.57;36.60;;;11.60;99.90;;;;;;5034910;28;20184;-82
2023/05/02 04:42:38;;;;;;;114.38;35.85;;;11.70;99.90;;;;;;5035230;28;20165;-82
2023/05/02 04:45:04;;;;;;;115.63;35.10;;;11.70;99.90;;;;;;5035061;28;20189;-82
2023/05/02 04:47:30;;;;;;;115.63;36.78;;;11.70;99.90;;;;;;5033861;28;20168;-82
2023/05/02 04:49:56;;;;;;;114.73;34.50;;;11.60;99.90;;;;;;5035306;28;20163;-82
2023/05/02 04:52:21;;;;;;;117.60;36.50;;;11.60;99.90;;;;;;5035256;28;20197;-82
2023/05/02 04:54:47;;;;;;;105.73;33.27;;;11.70;99.90;;;;;;5035406;28;20181;-82
2023/05/02 04:57:13;;;;;;;116.07;37.43;;;11.60;99.90;;;;;;5035618;28;20522;-82
2023/05/02 04:59:41;;;;;;;107.40;33.03;;;11.70;99.90;;;;;;5035043;28;20740;-82
2023/05/02 05:02:07;;;;;;;118.85;35.35;;;11.70;99.90;;;;;;5035763;28;20764;-82
2023/05/02 05:04:33;;;;;;;110.45;32.65;;;11.70;99.90;;;;;;5033665;28;20224;-82
2023/05/02 05:07:00;;;;;;;109.77;33.03;;;11.70;99.90;;;;;;5034712;28;20169;-82
2023/05/02 05:09:25;;;;;;;105.68;33.03;;;11.70;99.90;;;;;;5037269;28;20604;-82
2023/05/02 05:11:51;;;;;;;111.57;34.27;;;11.70;99.90;;;;;;5038846;28;20212;-82
2023/05/02 05:14:17;;;;;;;113.57;31.23;;;11.70;99.90;;;;;;5038813;28;20272;-82
2023/05/02 05:16:42;;;;;;;112.70;31.33;;;11.80;99.90;;;;;;5037548;28;20188;-82
2023/05/02 05:19:08;;;;;;;111.20;32.93;;;11.80;99.90;;;;;;5039602;28;20172;-82
2023/05/02 05:21:34;;;;;;;116.90;35.30;;;11.80;99.90;;;;;;5039052;28;20239;-82
2023/05/02 05:23:59;;;;;;;107.30;32.47;;;11.80;99.90;;;;;;5037849;28;20235;-82
2023/05/02 05:26:25;;;;;;;108.10;31.77;;;11.80;99.90;;;;;;5039140;28;20165;-82
2023/05/02 05:28:54;;;;;;;105.73;30.03;;;11.80;99.90;;;;;;5039165;28;20158;-82
2023/05/02 05:31:20;;;;;;;109.00;32.38;;;11.80;99.90;;;;;;5039195;28;20547;-82
2023/05/02 05:33:46;;;;;;;110.13;30.80;;;11.80;99.90;;;;;;5038473;28;20193;-82
2023/05/02 05:36:16;;;;;;;108.17;31.93;;;11.80;99.90;;;;;;5037309;28;20169;-82
2023/05/02 05:38:42;;;;;;;101.97;29.50;;;11.80;99.90;;;;;;5038612;28;20169;-82
2023/05/02 05:41:09;;;;;;;98.80;26.98;;;11.80;99.90;;;;;;5038641;28;20196;-82
2023/05/02 05:43:36;;;;;;;102.05;25.60;;;11.80;99.90;;;;;;5038056;28;20204;-82
2023/05/02 05:46:02;;;;;;;98.07;25.52;;;11.80;99.90;;;;;;5038328;28;20157;-82
2023/05/02 05:48:27;;;;;;;102.57;27.30;;;11.80;99.90;;;;;;5038373;28;20197;-82
2023/05/02 05:50:53;;;;;;;98.60;24.10;;;11.80;99.90;;;;;;5037118;28;20192;-82
2023/05/02 05:53:19;;;;;;;98.37;23.40;;;11.90;99.90;;;;;;5038264;28;20165;-82
2023/05/02 05:55:48;;;;;;;96.07;23.55;;;11.90;99.90;;;;;;5038748;28;20208;-82
2023/05/02 05:58:14;;;;;;;97.20;25.13;;;11.90;99.90;;;;;;5038343;28;20174;-82
2023/05/02 06:00:40;;;;;;;96.83;24.80;;;11.80;99.90;;;;;;5038717;28;20636;-82
2023/05/02 06:03:06;;;;;;;97.95;24.42;;;11.90;99.90;;;;;;5038115;28;20161;-82
2023/05/02 06:05:35;;;;;;;99.80;23.20;;;11.90;99.90;;;;;;5057978;22;20291;-82
2023/05/02 06:08:20;;;;;;;92.82;20.95;;;12.00;99.90;;;;;;5018780;28;20233;-82
2023/05/02 06:11:01;;;;;;;99.20;25.75;;;12.00;99.90;;;;;;5017506;28;20186;-82
2023/05/02 06:13:53;;;;;;;95.45;24.48;;;12.00;99.90;;;;;;5017183;28;20197;-82
2023/05/02 06:16:35;;;;;;;96.32;24.98;;;11.90;99.90;;;;;;5017197;28;20185;-82
2023/05/02 06:19:14;;;;;;;91.43;23.83;;;11.90;99.90;;;;;;5016612;28;20656;-82
2023/05/02 06:22:17;;;;;;;95.80;25.27;;;11.90;99.90;;;;;;5017078;28;20162;-82
2023/05/02 06:25:01;;;;;;;102.45;24.20;;;11.80;99.90;;;;;;5018219;28;20212;-82
2023/05/02 06:27:32;;;;;;;97.40;21.02;;;11.70;99.90;;;;;;5016621;28;20154;-83
2023/05/02 06:29:57;;;;;;;90.35;20.98;;;11.70;99.90;;;;;;5018301;28;20225;-82
2023/05/02 06:32:42;;;;;;;94.17;22.23;;;11.60;99.90;;;;;;5017897;28;20669;-82
2023/05/02 06:35:11;;;;;;;94.82;21.00;;;11.60;99.90;;;;;;5017663;28;20197;-82
2023/05/02 06:37:37;;;;;;;94.65;22.98;;;11.70;99.90;;;;;;5017569;28;20176;-82
2023/05/02 06:40:04;;;;;;;92.50;20.03;;;11.80;99.90;;;;;;5017578;28;20166;-82
2023/05/02 06:42:29;;;;;;;93.35;21.00;;;11.80;99.90;;;;;;5016626;28;20166;-82
2023/05/02 06:45:05;;;;;;;94.43;19.50;;;11.70;99.90;;;;;;5017575;28;20189;-82
2023/05/02 06:47:31;;;;;;;92.10;19.50;;;11.80;99.90;;;;;;5017658;28;20661;-82
2023/05/02 06:49:57;;;;;;;86.97;18.75;;;11.80;99.90;;;;;;5016012;28;20174;-81
2023/05/02 06:52:23;;;;;;;87.50;19.53;;;11.80;99.90;;;;;;5017603;28;20530;-82
2023/05/02 06:54:48;;;;;;;91.20;20.80;;;11.90;99.90;;;;;;5015711;28;20182;-82
2023/05/02 06:57:14;;;;;;;96.73;19.97;;;11.80;99.90;;;;;;5017436;28;20222;-82
2023/05/02 07:00:13;;;;;;;;;;;;;;;;;;;;;
2023/05/02 07:02:39;;;;;;;86.22;17.70;;;11.90;99.90;;;;;;5014470;28;20413;-81
2023/05/02 07:05:08;;;;;;;89.70;20.43;;;11.90;99.90;;;;;;5015952;28;20626;-82
2023/05/02 07:07:37;;;;;;;85.43;18.10;;;11.90;99.90;;;;;;5016612;28;20169;-82
2023/05/02 07:10:03;;;;;;;86.65;19.00;;;11.90;99.90;;;;;;5015824;28;20597;-82
2023/05/02 07:12:29;;;;;;;84.63;18.52;;;12.00;99.90;;;;;;5017006;28;20166;-82
2023/05/02 07:17:26;;;;;;;86.50;18.95;;;12.10;99.90;;;;;;4996312;28;20802;-82
2023/05/02 07:19:53;;;;;;;84.65;18.80;;;12.10;99.90;;;;;;4996522;28;20166;-82
2023/05/02 07:22:20;;;;;;;86.63;20.52;;;12.00;99.90;;;;;;4995985;28;20171;-82
2023/05/02 07:24:45;;;;;;;86.95;21.20;;;12.00;99.90;;;;;;5021949;23;20221;-81
2023/05/02 07:27:12;;;;;;;87.73;21.93;;;11.90;99.90;;;;;;5017258;28;20253;-82
2023/05/02 07:29:38;;;;;;;81.80;17.05;;;11.70;99.90;;;;;;5016163;28;20173;-82
2023/05/02 07:32:07;;;;;;;81.30;15.88;;;11.60;99.90;;;;;;5014064;28;20194;-82
2023/05/02 07:34:32;;;;;;;81.28;15.70;;;11.60;99.90;;;;;;5015957;28;20263;-81
2023/05/02 07:36:58;;;;;;;82.63;19.00;;;11.40;99.90;;;;;;5014764;28;20642;-81
2023/05/02 07:39:24;;;;;;;77.43;14.83;;;11.30;99.90;;;;;;5015171;28;20172;-82
2023/05/02 07:41:54;;;;;;;82.75;17.83;;;11.40;99.90;;;;;;5016002;28;20166;-82
2023/05/02 07:44:20;;;;;;;79.13;14.63;;;11.40;99.90;;;;;;5014656;28;20189;-82
2023/05/02 07:46:46;;;;;;;77.18;15.65;;;11.40;99.90;;;;;;5016575;28;20165;-82
2023/05/02 07:49:12;;;;;;;76.40;14.53;;;11.40;99.90;;;;;;5015995;28;20166;-81
2023/05/02 07:51:38;;;;;;;76.25;11.93;;;11.60;99.90;;;;;;5015790;28;20198;-82
2023/05/02 07:54:17;;;;;;;70.97;10.87;;;11.60;99.90;;;;;;5015600;28;20253;-82
2023/05/02 07:56:43;;;;;;;75.28;12.65;;;11.60;99.90;;;;;;5014319;28;20412;-82
2023/05/02 07:59:10;;;;;;;81.35;13.20;;;11.60;99.90;;;;;;5015877;28;20184;-82
2023/05/02 08:01:36;;;;;;;77.75;13.10;;;11.70;99.90;;;;;;5015977;28;20249;-82
2023/05/02 08:04:03;;;;;;;73.93;12.77;;;11.70;99.90;;;;;;5015930;28;20224;-82
2023/05/02 08:06:29;;;;;;;75.03;12.65;;;11.90;99.90;;;;;;5015601;28;20412;-82
2023/05/02 08:08:55;;;;;;;75.32;13.38;;;11.90;99.90;;;;;;5014496;28;20166;-82
2023/05/02 08:11:24;;;;;;;75.13;14.02;;;12.00;99.90;;;;;;5015571;28;20561;-82
2023/05/02 08:13:53;;;;;;;75.32;12.23;;;12.00;99.90;;;;;;5015608;28;20680;-82
2023/05/02 08:16:19;;;;;;;75.20;13.30;;;12.00;99.90;;;;;;5013998;28;20170;-83
2023/05/02 08:18:45;;;;;;;72.50;10.73;;;12.00;99.90;;;;;;5014689;28;20169;-82
2023/05/02 08:21:11;;;;;;;73.90;12.18;;;11.90;99.90;;;;;;5015457;28;20443;-82
2023/05/02 08:23:36;;;;;;;75.57;10.80;;;11.90;99.90;;;;;;5014134;28;20226;-82
2023/05/02 08:26:02;;;;;;;76.53;10.77;;;11.90;99.90;;;;;;5015577;28;20400;-82
2023/05/02 08:28:29;;;;;;;73.97;11.00;;;11.80;99.90;;;;;;5014223;28;20216;-82
2023/05/02 08:30:55;;;;;;;74.13;11.13;;;12.00;99.90;;;;;;5013824;28;20228;-82
2023/05/02 08:33:20;;;;;;;73.37;10.37;;;12.10;99.90;;;;;;5014943;28;20626;-82
2023/05/02 08:35:47;;;;;;;73.47;10.40;;;12.20;99.90;;;;;;5015438;28;20436;-82
2023/05/02 08:38:13;;;;;;;74.60;10.63;;;12.30;99.90;;;;;;5015464;28;20192;-82
2023/05/02 08:40:39;;;;;;;73.67;10.53;;;12.40;99.90;;;;;;5013788;28;20169;-82
2023/05/02 08:43:05;;;;;;;71.43;8.63;;;12.50;99.90;;;;;;5014888;28;20192;-82
2023/05/02 08:45:37;;;;;;;68.97;8.30;;;12.60;99.90;;;;;;5014658;28;20181;-82
2023/05/02 08:48:09;;;;;;;70.63;8.05;;;12.60;99.90;;;;;;5015430;28;20615;-82
2023/05/02 08:50:44;;;;;;;70.55;8.18;;;12.50;99.90;;;;;;5015366;28;20242;-82
2023/05/02 08:53:11;;;;;;;71.65;8.40;;;12.40;99.90;;;;;;5014017;28;20219;-82
2023/05/02 08:55:39;;;;;;;74.80;7.60;;;12.30;99.90;;;;;;5016139;28;20236;-82
2023/05/02 08:58:05;;;;;;;72.65;8.68;;;12.30;99.90;;;;;;5015936;28;20168;-82
2023/05/02 09:00:32;;;;;;;70.20;8.95;;;12.20;99.90;;;;;;5014327;28;20292;-82
2023/05/02 09:03:06;;;;;;;70.38;8.95;;;12.30;99.90;;;;;;5013976;28;20165;-83
2023/05/02 09:05:38;;;;;;;69.28;7.90;;;12.30;99.90;;;;;;5014090;28;20186;-82
2023/05/02 09:08:04;;;;;;;68.57;7.22;;;12.30;99.90;;;;;;5014199;28;20166;-80
2023/05/02 09:10:30;;;;;;;73.33;8.37;;;12.40;99.90;;;;;;5015488;28;20731;-80
2023/05/02 09:12:55;;;;;;;69.47;9.45;;;12.40;99.90;;;;;;5016247;28;20154;-80
2023/05/02 09:15:21;;;;;;;71.80;9.20;;;12.40;99.90;;;;;;5015618;28;20174;-81
2023/05/02 09:17:47;;;;;;;73.67;8.23;;;12.50;99.90;;;;;;5015448;28;20173;-80
2023/05/02 09:20:15;;;;;;;69.15;6.15;;;12.50;99.90;;;;;;5015711;28;20409;-80
2023/05/02 09:22:49;;;;;;;68.60;6.55;;;12.60;99.90;;;;;;5015562;28;20241;-80
2023/05/02 09:25:15;;;;;;;74.53;10.43;;;12.70;99.90;;;;;;5014516;28;20270;-82
2023/05/02 09:27:55;;;;;;;76.43;11.48;;;12.60;99.90;;;;;;5015417;28;20178;-80
2023/05/02 09:30:25;;;;;;;73.70;11.15;;;12.40;99.90;;;;;;5014005;28;20174;-81
2023/05/02 09:32:55;;;;;;;84.38;14.27;;;12.10;99.90;;;;;;5015728;28;20190;-81
2023/05/02 09:35:23;;;;;;;78.20;11.65;;;12.10;99.90;;;;;;5015285;28;20185;-80
2023/05/02 09:38:05;;;;;;;78.40;11.18;;;11.90;99.90;;;;;;5015613;28;20240;-81
2023/05/02 09:40:31;;;;;;;77.95;10.30;;;11.80;99.90;;;;;;5013876;28;20554;-80
2023/05/02 09:42:57;;;;;;;73.87;9.87;;;11.80;99.90;;;;;;5015491;28;20166;-80
2023/05/02 09:45:24;;;;;;;73.77;10.13;;;11.90;99.90;;;;;;5015422;28;20190;-80
2023/05/02 09:47:51;;;;;;;72.75;8.88;;;12.00;99.90;;;;;;5013841;28;20928;-80
2023/05/02 09:50:36;;;;;;;78.18;9.80;;;12.10;99.90;;;;;;5015386;28;20161;-80
2023/05/02 09:53:10;;;;;;;73.32;9.18;;;12.20;99.90;;;;;;5013975;28;20189;-82
2023/05/02 09:55:35;;;;;;;72.93;8.43;;;12.30;99.90;;;;;;5017234;28;20589;-82
2023/05/02 09:58:02;;;;;;;76.00;8.97;;;12.50;98.80;;;;;;5017189;28;20173;-82
2023/05/02 10:00:44;;;;;;;72.30;9.32;;;12.60;96.70;;;;;;5017415;28;20404;-82
2023/05/02 10:03:10;;;;;;;73.97;8.98;;;12.70;94.20;;;;;;5018962;28;20154;-82
2023/05/02 10:05:40;;;;;;;77.03;9.15;;;12.70;87.80;;;;;;5017956;28;20197;-82
2023/05/02 10:08:06;;;;;;;76.57;9.85;;;12.60;86.50;;;;;;5017241;28;20158;-82
2023/05/02 10:10:35;;;;;;;72.97;10.02;;;12.70;83.10;;;;;;5018171;28;20193;-82
2023/05/02 10:13:36;;;;;;;75.82;10.00;;;12.70;73.30;;;;;;5137565;23;20216;-82
2023/05/02 10:16:04;;;;;;;72.85;12.05;;;12.70;81.60;;;;;;5014870;28;20201;-81
2023/05/02 10:19:01;;;;;;;76.32;10.27;;;12.90;68.90;;;;;;5016952;28;20544;-81
2023/05/02 10:21:31;;;;;;;74.47;12.73;;;12.90;69.90;;;;;;5017228;28;20161;-82
2023/05/02 10:24:09;;;;;;;76.38;11.80;;;12.90;67.20;;;;;;5017800;28;20190;-81
2023/05/02 10:26:45;;;;;;;77.68;11.82;;;13.10;61.70;;;;;;5017696;28;20207;-82
2023/05/02 10:29:11;;;;;;;73.50;10.50;;;13.20;60.50;;;;;;5017147;28;20212;-82
2023/05/02 10:31:39;;;;;;;76.27;9.33;;;13.20;48.70;;;;;;5017984;28;20267;-82
2023/05/02 10:34:09;;;;;;;75.75;10.93;;;13.10;48.80;;;;;;5017473;28;20228;-82
2023/05/02 10:36:42;;;;;;;73.13;10.47;;;13.10;43.90;;;;;;5018499;28;20151;-82
2023/05/02 10:39:13;;;;;;;79.75;10.70;;;13.00;40.60;;;;;;5017073;28;20804;-82
2023/05/02 10:41:40;;;;;;;75.13;10.25;;;12.80;42.60;;;;;;5016917;28;20177;-82
2023/05/02 10:44:32;;;;;;;74.40;8.02;;;13.00;51.00;;;;;;5017548;28;20197;-82
2023/05/02 10:47:17;;;;;;;69.38;7.70;;;13.00;31.20;;;;;;5016324;28;20160;-82
2023/05/02 10:50:02;;;;;;;69.28;6.95;;;13.10;24.20;;;;;;5016768;28;20169;-82
2023/05/02 10:52:54;;;;;;;72.05;6.93;;;13.20;24.70;;;;;;5017704;28;20185;-83
2023/05/02 10:55:25;;;;;;;68.88;6.57;;;13.20;20.20;;;;;;5015706;28;20194;-82
2023/05/02 10:58:10;;;;;;;72.75;7.10;;;13.30;23.40;;;;;;5017786;28;20150;-82
2023/05/02 11:00:48;;;;;;;72.30;7.30;;;13.20;29.00;;;;;;5017768;28;20507;-82
2023/05/02 11:03:34;;;;;;;72.10;7.50;;;13.20;23.60;;;;;;5016574;28;20166;-82
2023/05/02 11:06:11;;;;;;;68.78;8.40;;;13.30;26.20;;;;;;5016562;28;20216;-82
2023/05/02 11:08:42;;;;;;;68.53;8.45;;;13.10;20.40;;;;;;5016163;28;20181;-81
2023/05/02 11:14:47;;;;;;;77.88;11.75;;;13.00;31.70;;;;;;5011541;28;20197;-80
2023/05/02 11:17:19;;;;;;;73.10;10.53;;;12.90;34.60;;;;;;5016695;28;20151;-80
2023/05/02 11:19:45;;;;;;;72.78;10.25;;;12.60;32.00;;;;;;5016464;28;20485;-80
2023/05/02 11:23:10;;;;;;;75.67;11.10;;;12.50;31.20;;;;;;5017288;28;20198;-80
2023/05/02 11:26:03;;;;;;;81.10;10.25;;;12.60;28.60;;;;;;5014751;28;20201;-81
2023/05/02 11:28:55;;;;;;;72.68;10.82;;;12.70;28.00;;;;;;5015134;28;20256;-80
2023/05/02 11:31:27;;;;;;;72.10;9.85;;;12.80;22.60;;;;;;4998578;28;20216;-80
2023/05/02 11:38:05;;;;;;;77.82;10.93;;;13.10;27.20;;;;;;4956386;28;20181;-80
2023/05/02 11:40:31;;;;;;;75.57;10.27;;;13.20;20.60;;;;;;5015367;28;20161;-80
2023/05/02 11:46:10;;;;;;;73.25;10.13;;;13.30;15.60;;;;;;5006195;28;20848;-80
2023/05/02 11:49:02;;;;;;;74.67;9.17;;;13.50;12.90;;;;;;5016544;28;20153;-80
2023/05/02 11:51:27;;;;;;;71.38;9.05;;;13.60;17.30;;;;;;5011016;28;20455;-80
2023/05/02 11:53:53;;;;;;;75.40;8.80;;;13.80;10.60;;;;;;5016748;28;20181;-79
2023/05/02 11:56:25;;;;;;;73.80;9.00;;;13.80;11.80;;;;;;5016577;28;20169;-79
2023/05/02 11:59:02;;;;;;;76.40;8.87;;;13.80;10.10;;;;;;5015561;28;20785;-79
2023/05/02 12:01:29;;;;;;;72.03;7.97;;;13.80;9.00;;;;;;5016639;28;20409;-79
2023/05/02 12:04:07;;;;;;;77.25;7.40;;;13.80;2.90;;;;;;5017069;28;20665;-80
2023/05/02 12:06:38;;;;;;;72.40;8.33;;;13.80;1.00;;;;;;5014892;28;20261;-79
2023/05/02 12:09:18;;;;;;;67.50;7.43;;;13.80;1.00;;;;;;5016819;28;20411;-80
2023/05/02 12:11:44;;;;;;;68.57;7.63;;;13.90;1.00;;;;;;5016023;28;20440;-79
2023/05/02 12:14:10;;;;;;;69.10;5.90;;;14.00;1.00;;;;;;5016708;28;20424;-80
2023/05/02 12:16:36;;;;;;;67.63;6.53;;;14.20;1.00;;;;;;5016313;28;20409;-80
2023/05/02 12:19:03;;;;;;;70.80;6.70;;;14.40;1.00;;;;;;5014551;28;20416;-79
2023/05/02 12:21:29;;;;;;;69.53;5.67;;;14.50;1.00;;;;;;5015538;28;20546;-80
2023/05/02 12:23:55;;;;;;;70.40;4.83;;;14.60;1.00;;;;;;5016110;28;20424;-79
2023/05/02 12:26:24;;;;;;;69.90;6.53;;;14.90;1.00;;;;;;5015940;28;20439;-79
2023/05/02 12:28:51;;;;;;;68.60;6.33;;;15.30;1.00;;;;;;5015936;28;20405;-79
2023/05/02 12:31:17;;;;;;;68.40;6.67;;;15.20;1.00;;;;;;5015789;28;20990;-79
2023/05/02 12:33:47;;;;;;;69.07;7.57;;;15.30;1.00;;;;;;5016028;28;20421;-79
2023/05/02 12:36:13;;;;;;;72.77;7.50;;;15.30;1.00;;;;;;5014586;28;20404;-79
2023/05/02 12:38:38;;;;;;;78.03;8.30;;;15.20;1.00;;;;;;5014394;28;20416;-80
2023/05/02 12:41:04;;;;;;;75.47;8.47;;;14.80;1.00;;;;;;5015738;28;20409;-79
2023/05/02 12:43:46;;;;;;;70.00;7.70;;;14.70;1.00;;;;;;5015520;28;20162;-80
2023/05/02 12:46:12;;;;;;;74.07;7.47;;;14.60;1.00;;;;;;5015959;28;20400;-79
2023/05/02 12:48:37;;;;;;;70.10;7.37;;;14.60;1.00;;;;;;5013797;28;20401;-79
2023/05/02 12:51:18;;;;;;;75.13;8.37;;;14.60;1.00;;;;;;5015668;28;20199;-79
2023/05/02 12:53:46;;;;;;;76.07;8.10;;;14.60;1.00;;;;;;5015237;28;20186;-80
2023/05/02 12:56:13;;;;;;;72.80;7.97;;;14.70;1.00;;;;;;5015946;28;20408;-79
2023/05/02 12:58:44;;;;;;;76.50;7.70;;;14.90;1.00;;;;;;5013883;28;20405;-79
2023/05/02 13:01:10;;;;;;;77.70;8.30;;;14.90;1.00;;;;;;5015302;28;20404;-81
2023/05/02 13:06:51;;;;;;;71.83;7.47;;;14.70;1.00;;;;;;4994177;28;20469;-82
2023/05/02 13:09:26;;;;;;;73.20;6.60;;;14.60;1.00;;;;;;4994521;28;20413;-82
2023/05/02 13:12:26;;;;;;;69.40;7.20;;;14.60;1.00;;;;;;5011127;28;20507;-82
2023/05/02 13:15:21;;;;;;;70.97;7.07;;;14.80;1.00;;;;;;5010591;28;20441;-81
2023/05/02 13:18:10;;;;;;;70.13;8.17;;;15.10;1.00;;;;;;4993562;28;20424;-81
2023/05/02 13:20:59;;;;;;;78.03;7.73;;;15.30;1.00;;;;;;4995600;28;20374;-81
2023/05/02 13:23:45;;;;;;;72.40;7.80;;;15.40;1.00;;;;;;4995704;28;20471;-81
2023/05/02 13:26:16;;;;;;;75.47;7.40;;;15.50;1.00;;;;;;4995127;28;20463;-81
2023/05/02 13:29:36;;;;;;;75.80;8.57;;;15.40;1.00;;;;;;4995377;28;20406;-81
2023/05/02 13:32:09;;;;;;;70.90;9.07;;;15.60;1.00;;;;;;4999295;28;20421;-82
2023/05/02 13:34:35;;;;;;;76.17;7.67;;;15.50;1.00;;;;;;5014648;28;20461;-81
2023/05/02 13:37:13;;;;;;;72.60;8.47;;;15.40;1.00;;;;;;4999114;28;20398;-82
2023/05/02 13:40:00;;;;;;;;;;;;;;;;;;;;;
2023/05/02 13:42:29;;;;;;;73.20;8.67;;;15.10;1.00;;;;;;4999179;28;20386;-81
2023/05/02 13:45:03;;;;;;;74.40;8.00;;;14.80;1.00;;;;;;4998633;28;20525;-81
2023/05/02 13:48:18;;;;;;;71.70;7.80;;;14.70;1.00;;;;;;4998595;28;20379;-82
2023/05/02 13:50:47;;;;;;;77.37;8.23;;;14.70;1.00;;;;;;4998475;28;20767;-81
2023/05/02 13:53:12;;;;;;;74.33;6.80;;;15.00;1.00;;;;;;4998619;28;20441;-82
2023/05/02 13:55:43;;;;;;;69.50;5.63;;;15.30;1.00;;;;;;4999730;28;20525;-82
2023/05/02 13:58:09;;;;;;;73.77;6.20;;;15.50;1.00;;;;;;4999692;28;20222;-82
2023/05/02 14:00:35;;;;;;;72.83;5.90;;;15.70;1.00;;;;;;4999409;28;20402;-80
2023/05/02 14:03:03;;;;;;;70.67;5.83;;;15.90;1.00;;;;;;4998659;28;20406;-80
2023/05/02 14:05:29;;;;;;;69.70;5.70;;;16.10;1.00;;;;;;4999550;28;20513;-80
2023/05/02 14:07:55;;;;;;;71.40;6.50;;;16.40;1.00;;;;;;5000164;28;20953;-80
2023/05/02 14:10:20;;;;;;;72.20;7.70;;;16.60;1.00;;;;;;4999132;28;20271;-79
2023/05/02 14:12:46;;;;;;;75.40;6.23;;;16.80;1.00;;;;;;4999077;28;20294;-79
2023/05/02 14:15:12;;;;;;;76.00;7.53;;;17.00;1.00;;;;;;4998389;28;20193;-79
2023/05/02 14:17:38;;;;;;;69.77;6.30;;;17.00;1.00;;;;;;4997839;28;20970;-79
2023/05/02 14:20:04;;;;;;;69.63;6.77;;;17.20;1.00;;;;;;5088483;22;20590;-84
2023/05/02 14:22:30;;;;;;;71.30;7.60;;;17.00;1.00;;;;;;5016831;28;20665;-83
2023/05/02 14:24:56;;;;;;;70.33;7.50;;;16.40;1.00;;;;;;5017846;28;20512;-82
2023/05/02 14:27:21;;;;;;;67.90;7.20;;;16.10;1.00;;;;;;5016092;28;20210;-84
2023/05/02 14:29:47;;;;;;;69.47;7.40;;;15.90;1.00;;;;;;5016242;28;20176;-82
2023/05/02 14:32:14;;;;;;;72.30;6.87;;;15.50;1.00;;;;;;5016773;28;20454;-84
2023/05/02 14:34:40;;;;;;;70.50;6.40;;;15.60;1.00;;;;;;5017381;28;20791;-82
2023/05/02 14:37:07;;;;;;;68.63;6.20;;;15.40;1.00;;;;;;5017419;28;20497;-82
2023/05/02 14:39:35;;;;;;;71.70;6.70;;;15.30;1.00;;;;;;5016366;28;20436;-82
2023/05/02 14:42:03;;;;;;;70.47;7.13;;;15.50;1.00;;;;;;5017213;28;20412;-83